sensor_id;sensor_type;location;lat;lon;timestamp;P1;durP1;ratioP1;P2;durP2;ratioP2
4096;SDS011;2062;50.694;7.246;2022-12-20T00:01:21;5.03;;;1.52;;
4096;SDS011;2062;50.694;7.246;2022-12-20T00:03:50;6.47;;;1.73;;
4096;SDS011;2062;50.694;7.246;2022-12-20T00:06:19;4.32;;;1.63;;
4096;SDS011;2062;50.694;7.246;2022-12-20T00:08:46;9.17;;;1.60;;
4096;SDS011;2062;50.694;7.246;2022-12-20T00:11:18;4.43;;;1.48;;
4096;SDS011;2062;50.694;7.246;2022-12-20T00:13:45;6.85;;;1.80;;
4096;SDS011;2062;50.694;7.246;2022-12-20T00:16:13;4.32;;;1.80;;
4096;SDS011;2062;50.694;7.246;2022-12-20T00:18:42;6.00;;;1.67;;
4096;SDS011;2062;50.694;7.246;2022-12-20T00:21:11;4.70;;;1.63;;
4096;SDS011;2062;50.694;7.246;2022-12-20T00:23:39;4.97;;;1.92;;
4096;SDS011;2062;50.694;7.246;2022-12-20T00:26:07;5.28;;;1.80;;
4096;SDS011;2062;50.694;7.246;2022-12-20T00:28:36;4.88;;;1.77;;
4096;SDS011;2062;50.694;7.246;2022-12-20T00:31:05;4.63;;;1.60;;
4096;SDS011;2062;50.694;7.246;2022-12-20T00:33:34;5.77;;;1.50;;
4096;SDS011;2062;50.694;7.246;2022-12-20T00:36:03;6.07;;;1.92;;
4096;SDS011;2062;50.694;7.246;2022-12-20T00:38:31;5.07;;;1.80;;
4096;SDS011;2062;50.694;7.246;2022-12-20T00:40:59;4.57;;;1.63;;
4096;SDS011;2062;50.694;7.246;2022-12-20T00:43:26;5.65;;;1.70;;
4096;SDS011;2062;50.694;7.246;2022-12-20T00:45:53;4.50;;;1.57;;
4096;SDS011;2062;50.694;7.246;2022-12-20T00:48:20;5.78;;;1.80;;
4096;SDS011;2062;50.694;7.246;2022-12-20T00:50:47;4.82;;;1.75;;
4096;SDS011;2062;50.694;7.246;2022-12-20T00:53:16;4.65;;;1.85;;
4096;SDS011;2062;50.694;7.246;2022-12-20T00:55:43;5.75;;;1.80;;
4096;SDS011;2062;50.694;7.246;2022-12-20T00:58:11;4.60;;;1.73;;
4096;SDS011;2062;50.694;7.246;2022-12-20T01:00:38;7.28;;;2.00;;
4096;SDS011;2062;50.694;7.246;2022-12-20T01:03:05;4.43;;;1.80;;
4096;SDS011;2062;50.694;7.246;2022-12-20T01:05:32;4.57;;;1.77;;
4096;SDS011;2062;50.694;7.246;2022-12-20T01:07:59;4.45;;;1.52;;
4096;SDS011;2062;50.694;7.246;2022-12-20T01:10:27;4.43;;;1.60;;
4096;SDS011;2062;50.694;7.246;2022-12-20T01:12:54;4.38;;;1.50;;
4096;SDS011;2062;50.694;7.246;2022-12-20T01:15:21;5.00;;;1.70;;
4096;SDS011;2062;50.694;7.246;2022-12-20T01:17:48;5.43;;;1.77;;
4096;SDS011;2062;50.694;7.246;2022-12-20T01:20:15;6.10;;;1.95;;
4096;SDS011;2062;50.694;7.246;2022-12-20T01:22:43;5.07;;;2.00;;
4096;SDS011;2062;50.694;7.246;2022-12-20T01:25:09;4.78;;;1.80;;
4096;SDS011;2062;50.694;7.246;2022-12-20T01:27:37;5.22;;;1.65;;
4096;SDS011;2062;50.694;7.246;2022-12-20T01:30:05;5.30;;;2.00;;
4096;SDS011;2062;50.694;7.246;2022-12-20T01:32:32;6.90;;;2.08;;
4096;SDS011;2062;50.694;7.246;2022-12-20T01:34:59;4.77;;;1.93;;
4096;SDS011;2062;50.694;7.246;2022-12-20T01:37:26;5.40;;;1.70;;
4096;SDS011;2062;50.694;7.246;2022-12-20T01:39:52;5.63;;;2.00;;
4096;SDS011;2062;50.694;7.246;2022-12-20T01:42:19;5.82;;;2.00;;
4096;SDS011;2062;50.694;7.246;2022-12-20T01:44:51;6.10;;;1.88;;
4096;SDS011;2062;50.694;7.246;2022-12-20T01:47:21;4.37;;;1.80;;
4096;SDS011;2062;50.694;7.246;2022-12-20T01:49:50;8.18;;;2.00;;
4096;SDS011;2062;50.694;7.246;2022-12-20T01:52:20;5.43;;;1.83;;
4096;SDS011;2062;50.694;7.246;2022-12-20T01:54:52;6.18;;;2.00;;
4096;SDS011;2062;50.694;7.246;2022-12-20T01:57:23;6.50;;;2.20;;
4096;SDS011;2062;50.694;7.246;2022-12-20T01:59:55;4.70;;;1.70;;
4096;SDS011;2062;50.694;7.246;2022-12-20T02:02:23;4.72;;;1.80;;
4096;SDS011;2062;50.694;7.246;2022-12-20T02:04:51;4.53;;;1.63;;
4096;SDS011;2062;50.694;7.246;2022-12-20T02:07:19;6.57;;;2.00;;
4096;SDS011;2062;50.694;7.246;2022-12-20T02:09:49;4.65;;;1.90;;
4096;SDS011;2062;50.694;7.246;2022-12-20T02:12:18;5.13;;;1.87;;
4096;SDS011;2062;50.694;7.246;2022-12-20T02:14:53;5.28;;;1.80;;
4096;SDS011;2062;50.694;7.246;2022-12-20T02:17:33;4.35;;;1.65;;
4096;SDS011;2062;50.694;7.246;2022-12-20T02:20:15;4.97;;;2.15;;
4096;SDS011;2062;50.694;7.246;2022-12-20T02:23:23;5.07;;;2.00;;
4096;SDS011;2062;50.694;7.246;2022-12-20T02:26:18;5.33;;;1.90;;
4096;SDS011;2062;50.694;7.246;2022-12-20T02:29:07;4.82;;;1.95;;
4096;SDS011;2062;50.694;7.246;2022-12-20T02:31:48;5.32;;;2.05;;
4096;SDS011;2062;50.694;7.246;2022-12-20T02:34:20;5.65;;;2.10;;
4096;SDS011;2062;50.694;7.246;2022-12-20T02:36:49;5.15;;;2.20;;
4096;SDS011;2062;50.694;7.246;2022-12-20T02:39:15;5.40;;;1.80;;
4096;SDS011;2062;50.694;7.246;2022-12-20T02:41:43;4.85;;;2.00;;
4096;SDS011;2062;50.694;7.246;2022-12-20T02:44:13;5.38;;;1.92;;
4096;SDS011;2062;50.694;7.246;2022-12-20T02:47:02;5.15;;;1.80;;
4096;SDS011;2062;50.694;7.246;2022-12-20T02:49:33;4.90;;;1.88;;
4096;SDS011;2062;50.694;7.246;2022-12-20T02:52:02;5.80;;;2.00;;
4096;SDS011;2062;50.694;7.246;2022-12-20T02:54:32;6.10;;;1.90;;
4096;SDS011;2062;50.694;7.246;2022-12-20T02:57:00;5.88;;;1.80;;
4096;SDS011;2062;50.694;7.246;2022-12-20T02:59:36;5.55;;;2.00;;
4096;SDS011;2062;50.694;7.246;2022-12-20T03:02:09;6.60;;;1.77;;
4096;SDS011;2062;50.694;7.246;2022-12-20T03:04:43;5.17;;;1.83;;
4096;SDS011;2062;50.694;7.246;2022-12-20T03:07:13;5.38;;;2.10;;
4096;SDS011;2062;50.694;7.246;2022-12-20T03:09:41;6.32;;;2.00;;
4096;SDS011;2062;50.694;7.246;2022-12-20T03:12:10;6.53;;;1.88;;
4096;SDS011;2062;50.694;7.246;2022-12-20T03:14:37;5.05;;;2.20;;
4096;SDS011;2062;50.694;7.246;2022-12-20T03:17:04;5.70;;;1.87;;
4096;SDS011;2062;50.694;7.246;2022-12-20T03:19:32;5.32;;;1.60;;
4096;SDS011;2062;50.694;7.246;2022-12-20T03:22:00;4.50;;;2.00;;
4096;SDS011;2062;50.694;7.246;2022-12-20T03:24:26;5.30;;;1.80;;
4096;SDS011;2062;50.694;7.246;2022-12-20T03:26:53;6.60;;;1.88;;
4096;SDS011;2062;50.694;7.246;2022-12-20T03:29:20;4.97;;;1.80;;
4096;SDS011;2062;50.694;7.246;2022-12-20T03:31:47;4.70;;;1.83;;
4096;SDS011;2062;50.694;7.246;2022-12-20T03:34:13;4.65;;;2.00;;
4096;SDS011;2062;50.694;7.246;2022-12-20T03:36:41;5.55;;;1.88;;
4096;SDS011;2062;50.694;7.246;2022-12-20T03:39:08;5.13;;;1.98;;
4096;SDS011;2062;50.694;7.246;2022-12-20T03:41:35;5.47;;;1.50;;
4096;SDS011;2062;50.694;7.246;2022-12-20T03:44:02;5.82;;;1.73;;
4096;SDS011;2062;50.694;7.246;2022-12-20T03:46:29;4.88;;;1.83;;
4096;SDS011;2062;50.694;7.246;2022-12-20T03:48:55;4.38;;;1.70;;
4096;SDS011;2062;50.694;7.246;2022-12-20T03:51:22;5.90;;;2.20;;
4096;SDS011;2062;50.694;7.246;2022-12-20T03:53:50;4.63;;;1.77;;
4096;SDS011;2062;50.694;7.246;2022-12-20T03:56:17;5.05;;;1.90;;
4096;SDS011;2062;50.694;7.246;2022-12-20T03:58:44;5.40;;;1.80;;
4096;SDS011;2062;50.694;7.246;2022-12-20T04:01:17;8.63;;;2.00;;
4096;SDS011;2062;50.694;7.246;2022-12-20T04:03:45;5.55;;;2.10;;
4096;SDS011;2062;50.694;7.246;2022-12-20T04:06:12;5.90;;;1.80;;
4096;SDS011;2062;50.694;7.246;2022-12-20T04:08:39;4.45;;;1.77;;
4096;SDS011;2062;50.694;7.246;2022-12-20T04:11:07;6.60;;;1.70;;
4096;SDS011;2062;50.694;7.246;2022-12-20T04:13:43;6.60;;;1.80;;
4096;SDS011;2062;50.694;7.246;2022-12-20T04:16:11;4.57;;;2.00;;
4096;SDS011;2062;50.694;7.246;2022-12-20T04:18:38;5.53;;;2.10;;
4096;SDS011;2062;50.694;7.246;2022-12-20T04:21:05;7.05;;;2.08;;
4096;SDS011;2062;50.694;7.246;2022-12-20T04:23:32;4.65;;;1.80;;
4096;SDS011;2062;50.694;7.246;2022-12-20T04:25:59;8.98;;;1.65;;
4096;SDS011;2062;50.694;7.246;2022-12-20T04:28:28;5.43;;;2.10;;
4096;SDS011;2062;50.694;7.246;2022-12-20T04:30:55;4.93;;;1.73;;
4096;SDS011;2062;50.694;7.246;2022-12-20T04:33:23;4.05;;;1.50;;
4096;SDS011;2062;50.694;7.246;2022-12-20T04:35:51;4.45;;;1.90;;
4096;SDS011;2062;50.694;7.246;2022-12-20T04:38:18;5.25;;;1.40;;
4096;SDS011;2062;50.694;7.246;2022-12-20T04:40:47;5.63;;;2.08;;
4096;SDS011;2062;50.694;7.246;2022-12-20T04:43:14;5.67;;;1.73;;
4096;SDS011;2062;50.694;7.246;2022-12-20T04:45:43;5.43;;;1.60;;
4096;SDS011;2062;50.694;7.246;2022-12-20T04:48:10;4.70;;;1.90;;
4096;SDS011;2062;50.694;7.246;2022-12-20T04:50:37;6.45;;;1.65;;
4096;SDS011;2062;50.694;7.246;2022-12-20T04:53:03;5.95;;;1.80;;
4096;SDS011;2062;50.694;7.246;2022-12-20T04:55:48;5.57;;;1.87;;
4096;SDS011;2062;50.694;7.246;2022-12-20T04:58:15;4.93;;;1.80;;
4096;SDS011;2062;50.694;7.246;2022-12-20T05:00:43;6.10;;;1.75;;
4096;SDS011;2062;50.694;7.246;2022-12-20T05:03:10;6.93;;;1.70;;
4096;SDS011;2062;50.694;7.246;2022-12-20T05:05:37;4.53;;;1.65;;
4096;SDS011;2062;50.694;7.246;2022-12-20T05:08:04;6.03;;;2.10;;
4096;SDS011;2062;50.694;7.246;2022-12-20T05:10:31;4.55;;;1.60;;
4096;SDS011;2062;50.694;7.246;2022-12-20T05:12:57;6.82;;;1.95;;
4096;SDS011;2062;50.694;7.246;2022-12-20T05:15:24;3.72;;;1.40;;
4096;SDS011;2062;50.694;7.246;2022-12-20T05:17:52;5.82;;;1.60;;
4096;SDS011;2062;50.694;7.246;2022-12-20T05:20:23;5.63;;;2.00;;
4096;SDS011;2062;50.694;7.246;2022-12-20T05:22:50;4.90;;;1.50;;
4096;SDS011;2062;50.694;7.246;2022-12-20T05:25:35;4.97;;;1.70;;
4096;SDS011;2062;50.694;7.246;2022-12-20T05:28:21;5.18;;;1.50;;
4096;SDS011;2062;50.694;7.246;2022-12-20T05:30:48;4.43;;;1.67;;
4096;SDS011;2062;50.694;7.246;2022-12-20T05:33:16;4.57;;;1.30;;
4096;SDS011;2062;50.694;7.246;2022-12-20T05:35:42;4.43;;;1.60;;
4096;SDS011;2062;50.694;7.246;2022-12-20T05:38:09;5.70;;;1.80;;
4096;SDS011;2062;50.694;7.246;2022-12-20T05:40:36;6.10;;;1.83;;
4096;SDS011;2062;50.694;7.246;2022-12-20T05:43:04;4.47;;;1.70;;
4096;SDS011;2062;50.694;7.246;2022-12-20T05:45:31;5.13;;;1.57;;
4096;SDS011;2062;50.694;7.246;2022-12-20T05:47:58;4.60;;;1.90;;
4096;SDS011;2062;50.694;7.246;2022-12-20T05:50:26;4.82;;;1.80;;
4096;SDS011;2062;50.694;7.246;2022-12-20T05:52:53;5.65;;;1.77;;
4096;SDS011;2062;50.694;7.246;2022-12-20T05:55:20;4.82;;;1.50;;
4096;SDS011;2062;50.694;7.246;2022-12-20T05:57:46;5.73;;;1.73;;
4096;SDS011;2062;50.694;7.246;2022-12-20T06:00:14;5.10;;;1.88;;
4096;SDS011;2062;50.694;7.246;2022-12-20T06:02:41;5.50;;;1.63;;
4096;SDS011;2062;50.694;7.246;2022-12-20T06:05:08;4.32;;;1.50;;
4096;SDS011;2062;50.694;7.246;2022-12-20T06:07:36;6.03;;;1.70;;
4096;SDS011;2062;50.694;7.246;2022-12-20T06:10:03;6.17;;;1.87;;
4096;SDS011;2062;50.694;7.246;2022-12-20T06:12:31;6.32;;;1.70;;
4096;SDS011;2062;50.694;7.246;2022-12-20T06:14:58;6.63;;;1.58;;
4096;SDS011;2062;50.694;7.246;2022-12-20T06:17:25;5.35;;;1.73;;
4096;SDS011;2062;50.694;7.246;2022-12-20T06:19:52;4.43;;;1.60;;
4096;SDS011;2062;50.694;7.246;2022-12-20T06:22:19;3.80;;;1.20;;
4096;SDS011;2062;50.694;7.246;2022-12-20T06:24:47;4.10;;;1.60;;
4096;SDS011;2062;50.694;7.246;2022-12-20T06:27:14;4.75;;;1.52;;
4096;SDS011;2062;50.694;7.246;2022-12-20T06:29:42;6.22;;;1.70;;
4096;SDS011;2062;50.694;7.246;2022-12-20T06:32:15;5.18;;;1.60;;
4096;SDS011;2062;50.694;7.246;2022-12-20T06:34:43;4.90;;;1.60;;
4096;SDS011;2062;50.694;7.246;2022-12-20T06:37:09;4.22;;;1.48;;
4096;SDS011;2062;50.694;7.246;2022-12-20T06:39:36;4.60;;;1.77;;
4096;SDS011;2062;50.694;7.246;2022-12-20T06:42:04;5.45;;;1.30;;
4096;SDS011;2062;50.694;7.246;2022-12-20T06:44:31;4.53;;;1.55;;
4096;SDS011;2062;50.694;7.246;2022-12-20T06:46:58;4.53;;;1.50;;
4096;SDS011;2062;50.694;7.246;2022-12-20T06:49:25;4.78;;;1.40;;
4096;SDS011;2062;50.694;7.246;2022-12-20T06:51:52;5.05;;;1.55;;
4096;SDS011;2062;50.694;7.246;2022-12-20T06:54:19;4.05;;;1.25;;
4096;SDS011;2062;50.694;7.246;2022-12-20T06:56:45;5.00;;;1.58;;
4096;SDS011;2062;50.694;7.246;2022-12-20T06:59:13;5.30;;;1.37;;
4096;SDS011;2062;50.694;7.246;2022-12-20T07:01:41;5.68;;;1.70;;
4096;SDS011;2062;50.694;7.246;2022-12-20T07:04:08;5.88;;;1.50;;
4096;SDS011;2062;50.694;7.246;2022-12-20T07:06:35;6.45;;;1.48;;
4096;SDS011;2062;50.694;7.246;2022-12-20T07:09:02;4.82;;;1.55;;
4096;SDS011;2062;50.694;7.246;2022-12-20T07:11:29;4.80;;;1.30;;
4096;SDS011;2062;50.694;7.246;2022-12-20T07:13:56;5.25;;;1.40;;
4096;SDS011;2062;50.694;7.246;2022-12-20T07:16:25;4.22;;;1.30;;
4096;SDS011;2062;50.694;7.246;2022-12-20T07:18:52;4.43;;;1.40;;
4096;SDS011;2062;50.694;7.246;2022-12-20T07:21:19;3.95;;;1.30;;
4096;SDS011;2062;50.694;7.246;2022-12-20T07:23:47;6.40;;;1.57;;
4096;SDS011;2062;50.694;7.246;2022-12-20T07:26:14;3.80;;;1.30;;
4096;SDS011;2062;50.694;7.246;2022-12-20T07:28:41;4.30;;;1.30;;
4096;SDS011;2062;50.694;7.246;2022-12-20T07:31:08;4.85;;;1.52;;
4096;SDS011;2062;50.694;7.246;2022-12-20T07:33:37;4.00;;;1.35;;
4096;SDS011;2062;50.694;7.246;2022-12-20T07:36:05;4.70;;;1.20;;
4096;SDS011;2062;50.694;7.246;2022-12-20T07:38:33;4.40;;;1.50;;
4096;SDS011;2062;50.694;7.246;2022-12-20T07:40:59;4.53;;;1.27;;
4096;SDS011;2062;50.694;7.246;2022-12-20T07:43:26;4.53;;;1.63;;
4096;SDS011;2062;50.694;7.246;2022-12-20T07:45:54;4.60;;;1.40;;
4096;SDS011;2062;50.694;7.246;2022-12-20T07:48:21;4.87;;;1.50;;
4096;SDS011;2062;50.694;7.246;2022-12-20T07:50:49;6.25;;;1.60;;
4096;SDS011;2062;50.694;7.246;2022-12-20T07:53:17;5.10;;;1.45;;
4096;SDS011;2062;50.694;7.246;2022-12-20T07:55:45;4.20;;;1.60;;
4096;SDS011;2062;50.694;7.246;2022-12-20T07:58:12;6.70;;;1.70;;
4096;SDS011;2062;50.694;7.246;2022-12-20T08:00:41;3.93;;;1.30;;
4096;SDS011;2062;50.694;7.246;2022-12-20T08:03:09;7.35;;;1.67;;
4096;SDS011;2062;50.694;7.246;2022-12-20T08:05:41;7.07;;;1.50;;
4096;SDS011;2062;50.694;7.246;2022-12-20T08:08:13;4.43;;;1.58;;
4096;SDS011;2062;50.694;7.246;2022-12-20T08:10:41;5.55;;;1.52;;
4096;SDS011;2062;50.694;7.246;2022-12-20T08:13:08;4.53;;;1.43;;
4096;SDS011;2062;50.694;7.246;2022-12-20T08:15:35;5.80;;;1.60;;
4096;SDS011;2062;50.694;7.246;2022-12-20T08:18:02;4.18;;;1.33;;
4096;SDS011;2062;50.694;7.246;2022-12-20T08:20:30;4.78;;;1.50;;
4096;SDS011;2062;50.694;7.246;2022-12-20T08:22:57;4.78;;;1.40;;
4096;SDS011;2062;50.694;7.246;2022-12-20T08:25:25;4.17;;;1.70;;
4096;SDS011;2062;50.694;7.246;2022-12-20T08:27:52;4.35;;;1.40;;
4096;SDS011;2062;50.694;7.246;2022-12-20T08:30:19;4.65;;;1.40;;
4096;SDS011;2062;50.694;7.246;2022-12-20T08:32:45;4.55;;;1.42;;
4096;SDS011;2062;50.694;7.246;2022-12-20T08:35:12;4.00;;;1.35;;
4096;SDS011;2062;50.694;7.246;2022-12-20T08:37:39;5.17;;;1.67;;
4096;SDS011;2062;50.694;7.246;2022-12-20T08:40:06;4.10;;;1.40;;
4096;SDS011;2062;50.694;7.246;2022-12-20T08:42:35;5.18;;;1.45;;
4096;SDS011;2062;50.694;7.246;2022-12-20T08:45:02;5.30;;;1.40;;
4096;SDS011;2062;50.694;7.246;2022-12-20T08:47:30;4.68;;;1.35;;
4096;SDS011;2062;50.694;7.246;2022-12-20T08:49:57;4.80;;;1.30;;
4096;SDS011;2062;50.694;7.246;2022-12-20T08:52:23;4.13;;;1.20;;
4096;SDS011;2062;50.694;7.246;2022-12-20T08:54:50;4.57;;;1.52;;
4096;SDS011;2062;50.694;7.246;2022-12-20T08:57:17;4.18;;;1.20;;
4096;SDS011;2062;50.694;7.246;2022-12-20T08:59:45;5.15;;;1.63;;
4096;SDS011;2062;50.694;7.246;2022-12-20T09:02:13;3.60;;;1.30;;
4096;SDS011;2062;50.694;7.246;2022-12-20T09:04:40;4.25;;;1.30;;
4096;SDS011;2062;50.694;7.246;2022-12-20T09:07:08;4.93;;;1.40;;
4096;SDS011;2062;50.694;7.246;2022-12-20T09:09:35;3.95;;;1.45;;
4096;SDS011;2062;50.694;7.246;2022-12-20T09:12:02;4.32;;;1.55;;
4096;SDS011;2062;50.694;7.246;2022-12-20T09:14:29;4.30;;;1.13;;
4096;SDS011;2062;50.694;7.246;2022-12-20T09:16:57;3.67;;;1.15;;
4096;SDS011;2062;50.694;7.246;2022-12-20T09:19:24;5.97;;;1.40;;
4096;SDS011;2062;50.694;7.246;2022-12-20T09:21:51;3.55;;;1.27;;
4096;SDS011;2062;50.694;7.246;2022-12-20T09:24:19;4.35;;;1.45;;
4096;SDS011;2062;50.694;7.246;2022-12-20T09:26:46;3.97;;;1.30;;
4096;SDS011;2062;50.694;7.246;2022-12-20T09:29:12;4.30;;;1.15;;
4096;SDS011;2062;50.694;7.246;2022-12-20T09:31:39;4.00;;;1.20;;
4096;SDS011;2062;50.694;7.246;2022-12-20T09:34:08;4.82;;;1.30;;
4096;SDS011;2062;50.694;7.246;2022-12-20T09:36:36;4.38;;;1.25;;
4096;SDS011;2062;50.694;7.246;2022-12-20T09:39:02;4.53;;;1.30;;
4096;SDS011;2062;50.694;7.246;2022-12-20T09:41:30;4.22;;;1.45;;
4096;SDS011;2062;50.694;7.246;2022-12-20T09:44:03;4.32;;;1.38;;
4096;SDS011;2062;50.694;7.246;2022-12-20T09:46:32;3.63;;;1.20;;
4096;SDS011;2062;50.694;7.246;2022-12-20T09:48:59;5.03;;;1.30;;
4096;SDS011;2062;50.694;7.246;2022-12-20T09:51:31;6.17;;;1.60;;
4096;SDS011;2062;50.694;7.246;2022-12-20T09:54:14;3.97;;;1.30;;
4096;SDS011;2062;50.694;7.246;2022-12-20T09:56:46;4.00;;;1.30;;
4096;SDS011;2062;50.694;7.246;2022-12-20T09:59:21;4.82;;;1.30;;
4096;SDS011;2062;50.694;7.246;2022-12-20T10:01:48;4.53;;;1.48;;
4096;SDS011;2062;50.694;7.246;2022-12-20T10:04:18;3.80;;;1.30;;
4096;SDS011;2062;50.694;7.246;2022-12-20T10:06:50;5.03;;;1.38;;
4096;SDS011;2062;50.694;7.246;2022-12-20T10:12:29;3.75;;;1.08;;
4096;SDS011;2062;50.694;7.246;2022-12-20T10:15:13;3.60;;;1.20;;
4096;SDS011;2062;50.694;7.246;2022-12-20T10:17:45;5.40;;;1.67;;
4096;SDS011;2062;50.694;7.246;2022-12-20T10:20:23;3.80;;;1.33;;
4096;SDS011;2062;50.694;7.246;2022-12-20T10:23:03;5.32;;;1.45;;
4096;SDS011;2062;50.694;7.246;2022-12-20T10:25:37;4.00;;;1.50;;
4096;SDS011;2062;50.694;7.246;2022-12-20T10:28:09;4.40;;;1.35;;
4096;SDS011;2062;50.694;7.246;2022-12-20T10:30:39;4.07;;;1.40;;
4096;SDS011;2062;50.694;7.246;2022-12-20T10:33:07;4.63;;;1.42;;
4096;SDS011;2062;50.694;7.246;2022-12-20T10:35:41;5.13;;;1.42;;
4096;SDS011;2062;50.694;7.246;2022-12-20T10:38:11;4.45;;;1.33;;
4096;SDS011;2062;50.694;7.246;2022-12-20T10:40:42;4.90;;;1.30;;
4096;SDS011;2062;50.694;7.246;2022-12-20T10:43:13;4.00;;;1.33;;
4096;SDS011;2062;50.694;7.246;2022-12-20T10:45:42;6.57;;;1.40;;
4096;SDS011;2062;50.694;7.246;2022-12-20T10:48:23;6.57;;;1.65;;
4096;SDS011;2062;50.694;7.246;2022-12-20T10:50:55;4.10;;;1.50;;
4096;SDS011;2062;50.694;7.246;2022-12-20T10:53:24;3.90;;;1.70;;
4096;SDS011;2062;50.694;7.246;2022-12-20T10:55:53;4.93;;;1.40;;
4096;SDS011;2062;50.694;7.246;2022-12-20T10:58:33;4.88;;;1.40;;
4096;SDS011;2062;50.694;7.246;2022-12-20T11:01:11;4.38;;;1.60;;
4096;SDS011;2062;50.694;7.246;2022-12-20T11:03:53;4.90;;;1.38;;
4096;SDS011;2062;50.694;7.246;2022-12-20T11:06:22;4.88;;;1.40;;
4096;SDS011;2062;50.694;7.246;2022-12-20T11:08:52;4.17;;;1.40;;
4096;SDS011;2062;50.694;7.246;2022-12-20T11:11:19;5.18;;;1.50;;
4096;SDS011;2062;50.694;7.246;2022-12-20T11:13:47;4.57;;;1.50;;
4096;SDS011;2062;50.694;7.246;2022-12-20T11:16:25;4.95;;;1.42;;
4096;SDS011;2062;50.694;7.246;2022-12-20T11:19:02;4.78;;;1.50;;
4096;SDS011;2062;50.694;7.246;2022-12-20T11:21:48;6.30;;;1.50;;
4096;SDS011;2062;50.694;7.246;2022-12-20T11:24:26;4.32;;;1.35;;
4096;SDS011;2062;50.694;7.246;2022-12-20T11:27:02;4.72;;;1.50;;
4096;SDS011;2062;50.694;7.246;2022-12-20T11:29:45;5.43;;;1.60;;
4096;SDS011;2062;50.694;7.246;2022-12-20T11:32:32;4.45;;;1.40;;
4096;SDS011;2062;50.694;7.246;2022-12-20T11:35:17;4.77;;;1.30;;
4096;SDS011;2062;50.694;7.246;2022-12-20T11:37:49;4.93;;;1.38;;
4096;SDS011;2062;50.694;7.246;2022-12-20T11:40:29;3.75;;;1.40;;
4096;SDS011;2062;50.694;7.246;2022-12-20T11:43:11;4.50;;;1.35;;
4096;SDS011;2062;50.694;7.246;2022-12-20T11:45:58;3.97;;;1.48;;
4096;SDS011;2062;50.694;7.246;2022-12-20T11:48:40;4.90;;;1.73;;
4096;SDS011;2062;50.694;7.246;2022-12-20T11:51:20;3.92;;;1.40;;
4096;SDS011;2062;50.694;7.246;2022-12-20T11:53:51;5.45;;;1.20;;
4096;SDS011;2062;50.694;7.246;2022-12-20T11:56:25;4.93;;;1.40;;
4096;SDS011;2062;50.694;7.246;2022-12-20T11:58:56;4.22;;;1.50;;
4096;SDS011;2062;50.694;7.246;2022-12-20T12:01:29;4.73;;;1.40;;
4096;SDS011;2062;50.694;7.246;2022-12-20T12:04:02;5.60;;;1.85;;
4096;SDS011;2062;50.694;7.246;2022-12-20T12:06:34;4.18;;;1.50;;
4096;SDS011;2062;50.694;7.246;2022-12-20T12:09:07;4.72;;;1.42;;
4096;SDS011;2062;50.694;7.246;2022-12-20T12:11:43;4.35;;;1.25;;
4096;SDS011;2062;50.694;7.246;2022-12-20T12:14:15;5.97;;;1.60;;
4096;SDS011;2062;50.694;7.246;2022-12-20T12:16:53;5.07;;;1.40;;
4096;SDS011;2062;50.694;7.246;2022-12-20T12:19:22;4.22;;;1.70;;
4096;SDS011;2062;50.694;7.246;2022-12-20T12:21:52;4.50;;;1.30;;
4096;SDS011;2062;50.694;7.246;2022-12-20T12:24:26;5.18;;;1.70;;
4096;SDS011;2062;50.694;7.246;2022-12-20T12:27:01;4.63;;;1.30;;
4096;SDS011;2062;50.694;7.246;2022-12-20T12:29:28;5.90;;;1.60;;
4096;SDS011;2062;50.694;7.246;2022-12-20T12:31:57;5.32;;;1.50;;
4096;SDS011;2062;50.694;7.246;2022-12-20T12:34:29;4.07;;;1.45;;
4096;SDS011;2062;50.694;7.246;2022-12-20T12:40:06;4.00;;;1.37;;
4096;SDS011;2062;50.694;7.246;2022-12-20T12:42:57;6.13;;;1.70;;
4096;SDS011;2062;50.694;7.246;2022-12-20T12:45:49;5.75;;;1.40;;
4096;SDS011;2062;50.694;7.246;2022-12-20T12:48:21;7.90;;;1.30;;
4096;SDS011;2062;50.694;7.246;2022-12-20T12:50:52;5.18;;;1.42;;
4096;SDS011;2062;50.694;7.246;2022-12-20T12:53:23;4.70;;;1.47;;
4096;SDS011;2062;50.694;7.246;2022-12-20T12:55:57;5.35;;;1.48;;
4096;SDS011;2062;50.694;7.246;2022-12-20T13:01:02;4.45;;;1.55;;
4096;SDS011;2062;50.694;7.246;2022-12-20T13:03:45;5.28;;;1.40;;
4096;SDS011;2062;50.694;7.246;2022-12-20T13:06:52;4.23;;;1.20;;
4096;SDS011;2062;50.694;7.246;2022-12-20T13:09:35;3.97;;;1.20;;
4096;SDS011;2062;50.694;7.246;2022-12-20T13:18:29;4.40;;;1.35;;
4096;SDS011;2062;50.694;7.246;2022-12-20T13:27:02;4.93;;;1.65;;
4096;SDS011;2062;50.694;7.246;2022-12-20T13:29:50;4.28;;;1.30;;
4096;SDS011;2062;50.694;7.246;2022-12-20T13:35:27;4.53;;;1.23;;
4096;SDS011;2062;50.694;7.246;2022-12-20T13:37:59;3.95;;;1.38;;
4096;SDS011;2062;50.694;7.246;2022-12-20T13:40:30;4.38;;;1.42;;
4096;SDS011;2062;50.694;7.246;2022-12-20T13:43:03;4.85;;;1.35;;
4096;SDS011;2062;50.694;7.246;2022-12-20T13:45:35;3.80;;;1.35;;
4096;SDS011;2062;50.694;7.246;2022-12-20T13:48:05;5.73;;;1.27;;
4096;SDS011;2062;50.694;7.246;2022-12-20T13:50:37;5.28;;;1.35;;
4096;SDS011;2062;50.694;7.246;2022-12-20T13:53:13;3.97;;;1.33;;
4096;SDS011;2062;50.694;7.246;2022-12-20T13:55:42;5.65;;;1.40;;
4096;SDS011;2062;50.694;7.246;2022-12-20T13:58:11;5.22;;;1.60;;
4096;SDS011;2062;50.694;7.246;2022-12-20T14:00:41;4.23;;;1.50;;
4096;SDS011;2062;50.694;7.246;2022-12-20T14:03:15;6.05;;;1.55;;
4096;SDS011;2062;50.694;7.246;2022-12-20T14:05:45;8.70;;;1.83;;
4096;SDS011;2062;50.694;7.246;2022-12-20T14:08:13;6.85;;;1.88;;
4096;SDS011;2062;50.694;7.246;2022-12-20T14:10:42;5.90;;;2.13;;
4096;SDS011;2062;50.694;7.246;2022-12-20T14:13:16;9.30;;;1.70;;
4096;SDS011;2062;50.694;7.246;2022-12-20T14:15:46;8.35;;;1.77;;
4096;SDS011;2062;50.694;7.246;2022-12-20T14:18:16;4.75;;;1.50;;
4096;SDS011;2062;50.694;7.246;2022-12-20T14:20:45;5.45;;;1.70;;
4096;SDS011;2062;50.694;7.246;2022-12-20T14:23:15;5.25;;;1.63;;
4096;SDS011;2062;50.694;7.246;2022-12-20T14:25:45;6.10;;;1.63;;
4096;SDS011;2062;50.694;7.246;2022-12-20T14:28:17;7.40;;;1.50;;
4096;SDS011;2062;50.694;7.246;2022-12-20T14:30:50;5.88;;;1.50;;
4096;SDS011;2062;50.694;7.246;2022-12-20T14:33:23;3.90;;;1.40;;
4096;SDS011;2062;50.694;7.246;2022-12-20T14:35:54;3.80;;;1.40;;
4096;SDS011;2062;50.694;7.246;2022-12-20T14:38:22;6.53;;;1.33;;
4096;SDS011;2062;50.694;7.246;2022-12-20T14:40:50;3.97;;;1.42;;
4096;SDS011;2062;50.694;7.246;2022-12-20T14:43:23;4.38;;;1.23;;
4096;SDS011;2062;50.694;7.246;2022-12-20T14:46:05;4.10;;;1.40;;
4096;SDS011;2062;50.694;7.246;2022-12-20T14:48:35;5.20;;;1.40;;
4096;SDS011;2062;50.694;7.246;2022-12-20T14:51:03;4.63;;;1.53;;
4096;SDS011;2062;50.694;7.246;2022-12-20T14:53:30;3.78;;;1.20;;
4096;SDS011;2062;50.694;7.246;2022-12-20T14:55:56;4.63;;;1.30;;
4096;SDS011;2062;50.694;7.246;2022-12-20T14:58:24;3.97;;;1.30;;
4096;SDS011;2062;50.694;7.246;2022-12-20T15:00:56;5.20;;;1.60;;
4096;SDS011;2062;50.694;7.246;2022-12-20T15:03:24;5.23;;;1.57;;
4096;SDS011;2062;50.694;7.246;2022-12-20T15:05:53;4.32;;;1.40;;
4096;SDS011;2062;50.694;7.246;2022-12-20T15:08:22;4.82;;;1.58;;
4096;SDS011;2062;50.694;7.246;2022-12-20T15:10:53;4.57;;;1.48;;
4096;SDS011;2062;50.694;7.246;2022-12-20T15:13:23;6.47;;;1.50;;
4096;SDS011;2062;50.694;7.246;2022-12-20T15:15:52;4.80;;;1.60;;
4096;SDS011;2062;50.694;7.246;2022-12-20T15:18:20;4.68;;;1.35;;
4096;SDS011;2062;50.694;7.246;2022-12-20T15:20:48;6.43;;;1.60;;
4096;SDS011;2062;50.694;7.246;2022-12-20T15:23:31;4.45;;;1.35;;
4096;SDS011;2062;50.694;7.246;2022-12-20T15:25:59;6.25;;;1.90;;
4096;SDS011;2062;50.694;7.246;2022-12-20T15:28:26;5.07;;;1.43;;
4096;SDS011;2062;50.694;7.246;2022-12-20T15:30:53;5.43;;;1.48;;
4096;SDS011;2062;50.694;7.246;2022-12-20T15:33:21;4.35;;;1.30;;
4096;SDS011;2062;50.694;7.246;2022-12-20T15:35:50;5.95;;;1.40;;
4096;SDS011;2062;50.694;7.246;2022-12-20T15:38:19;4.18;;;1.40;;
4096;SDS011;2062;50.694;7.246;2022-12-20T15:40:51;5.30;;;1.50;;
4096;SDS011;2062;50.694;7.246;2022-12-20T15:43:21;4.80;;;1.30;;
4096;SDS011;2062;50.694;7.246;2022-12-20T15:45:49;5.03;;;1.60;;
4096;SDS011;2062;50.694;7.246;2022-12-20T15:48:18;5.72;;;1.70;;
4096;SDS011;2062;50.694;7.246;2022-12-20T15:50:50;5.13;;;1.80;;
4096;SDS011;2062;50.694;7.246;2022-12-20T15:53:22;5.07;;;1.70;;
4096;SDS011;2062;50.694;7.246;2022-12-20T15:55:51;5.07;;;1.63;;
4096;SDS011;2062;50.694;7.246;2022-12-20T15:58:19;5.68;;;1.80;;